sensor_id;sensor_type;location;lat;lon;timestamp;pressure;altitude;pressure_sealevel;temperature;humidity
38912;BME280;28444;48.056;14.408;2023-12-22T00:13:16;95767.53;;;3.91;100.00
38912;BME280;28444;48.056;14.408;2023-12-22T00:15:43;95782.16;;;4.05;100.00
38912;BME280;28444;48.056;14.408;2023-12-22T00:18:10;95796.88;;;3.94;98.33
38912;BME280;28444;48.056;14.408;2023-12-22T00:20:36;95788.78;;;3.94;99.63
38912;BME280;28444;48.056;14.408;2023-12-22T00:23:03;95794.66;;;4.00;97.88
38912;BME280;28444;48.056;14.408;2023-12-22T00:25:29;95808.78;;;4.08;98.05
38912;BME280;28444;48.056;14.408;2023-12-22T00:27:56;95821.09;;;3.92;99.60
38912;BME280;28444;48.056;14.408;2023-12-22T00:30:23;95821.63;;;3.91;100.00
38912;BME280;28444;48.056;14.408;2023-12-22T00:32:50;95818.69;;;3.96;100.00
38912;BME280;28444;48.056;14.408;2023-12-22T00:35:17;95786.13;;;4.04;100.00
38912;BME280;28444;48.056;14.408;2023-12-22T00:37:44;95802.91;;;4.02;100.00
38912;BME280;28444;48.056;14.408;2023-12-22T00:40:10;95821.44;;;4.06;100.00
38912;BME280;28444;48.056;14.408;2023-12-22T00:42:43;95821.34;;;4.14;100.00
38912;BME280;28444;48.056;14.408;2023-12-22T00:45:14;95825.19;;;4.10;100.00
38912;BME280;28444;48.056;14.408;2023-12-22T00:47:43;95819.22;;;4.12;100.00
38912;BME280;28444;48.056;14.408;2023-12-22T00:50:27;95810.94;;;4.10;100.00
38912;BME280;28444;48.056;14.408;2023-12-22T00:52:54;95812.38;;;4.11;100.00
38912;BME280;28444;48.056;14.408;2023-12-22T00:55:20;95826.53;;;4.02;100.00
38912;BME280;28444;48.056;14.408;2023-12-22T00:57:47;95830.38;;;3.99;99.96
38912;BME280;28444;48.056;14.408;2023-12-22T01:00:14;95838.97;;;4.05;100.00
38912;BME280;28444;48.056;14.408;2023-12-22T01:02:41;95819.44;;;4.06;100.00
38912;BME280;28444;48.056;14.408;2023-12-22T01:05:07;95809.50;;;4.09;100.00
38912;BME280;28444;48.056;14.408;2023-12-22T01:07:34;95788.84;;;4.04;100.00
38912;BME280;28444;48.056;14.408;2023-12-22T01:10:01;95795.19;;;3.99;100.00
38912;BME280;28444;48.056;14.408;2023-12-22T01:12:30;95771.97;;;3.96;100.00
38912;BME280;28444;48.056;14.408;2023-12-22T01:14:57;95805.63;;;4.02;100.00
38912;BME280;28444;48.056;14.408;2023-12-22T01:17:23;95788.97;;;4.06;100.00
38912;BME280;28444;48.056;14.408;2023-12-22T01:19:50;95802.06;;;4.00;100.00
38912;BME280;28444;48.056;14.408;2023-12-22T01:22:17;95828.84;;;4.05;100.00
38912;BME280;28444;48.056;14.408;2023-12-22T01:24:44;95833.72;;;4.07;100.00
38912;BME280;28444;48.056;14.408;2023-12-22T01:27:12;95835.34;;;4.20;100.00
38912;BME280;28444;48.056;14.408;2023-12-22T01:29:38;95834.16;;;4.13;99.62
38912;BME280;28444;48.056;14.408;2023-12-22T01:32:05;95834.16;;;4.13;97.02
38912;BME280;28444;48.056;14.408;2023-12-22T01:34:32;95823.72;;;4.27;95.30
38912;BME280;28444;48.056;14.408;2023-12-22T01:36:59;95820.31;;;4.26;96.08
38912;BME280;28444;48.056;14.408;2023-12-22T01:39:25;95830.88;;;4.32;95.07
38912;BME280;28444;48.056;14.408;2023-12-22T01:41:52;95840.03;;;4.37;93.40
38912;BME280;28444;48.056;14.408;2023-12-22T01:44:19;95822.75;;;4.32;93.30
38912;BME280;28444;48.056;14.408;2023-12-22T01:46:45;95822.34;;;4.35;92.03
38912;BME280;28444;48.056;14.408;2023-12-22T01:49:13;95819.22;;;4.39;91.85
38912;BME280;28444;48.056;14.408;2023-12-22T01:51:40;95810.69;;;4.43;91.64
38912;BME280;28444;48.056;14.408;2023-12-22T01:54:07;95789.44;;;4.39;89.81
38912;BME280;28444;48.056;14.408;2023-12-22T01:56:34;95806.91;;;4.28;90.78
38912;BME280;28444;48.056;14.408;2023-12-22T01:59:01;95787.88;;;4.36;88.34
38912;BME280;28444;48.056;14.408;2023-12-22T02:01:28;95808.81;;;4.35;88.07
38912;BME280;28444;48.056;14.408;2023-12-22T02:03:56;95816.88;;;4.26;85.96
38912;BME280;28444;48.056;14.408;2023-12-22T02:06:25;95808.78;;;4.26;86.65
38912;BME280;28444;48.056;14.408;2023-12-22T02:08:51;95806.38;;;4.30;86.84
38912;BME280;28444;48.056;14.408;2023-12-22T02:11:19;95826.72;;;4.31;86.79
38912;BME280;28444;48.056;14.408;2023-12-22T02:13:46;95846.47;;;4.24;86.23
38912;BME280;28444;48.056;14.408;2023-12-22T02:18:46;95804.72;;;4.17;86.56
38912;BME280;28444;48.056;14.408;2023-12-22T02:21:13;95790.22;;;4.22;85.52
38912;BME280;28444;48.056;14.408;2023-12-22T02:23:40;95800.69;;;4.08;86.67
38912;BME280;28444;48.056;14.408;2023-12-22T02:26:12;95827.50;;;4.14;87.14
38912;BME280;28444;48.056;14.408;2023-12-22T02:28:44;95824.06;;;4.14;86.85
38912;BME280;28444;48.056;14.408;2023-12-22T02:31:22;95822.22;;;4.16;86.76
38912;BME280;28444;48.056;14.408;2023-12-22T02:33:53;95808.50;;;4.04;87.08
38912;BME280;28444;48.056;14.408;2023-12-22T02:36:22;95798.63;;;3.99;88.85
38912;BME280;28444;48.056;14.408;2023-12-22T02:38:51;95775.72;;;4.00;87.88
38912;BME280;28444;48.056;14.408;2023-12-22T02:41:20;95784.47;;;3.91;88.91
38912;BME280;28444;48.056;14.408;2023-12-22T02:43:47;95795.47;;;3.93;88.86
38912;BME280;28444;48.056;14.408;2023-12-22T02:46:14;95819.84;;;4.03;88.03
38912;BME280;28444;48.056;14.408;2023-12-22T02:48:41;95830.94;;;3.97;87.78
38912;BME280;28444;48.056;14.408;2023-12-22T02:51:08;95819.63;;;3.91;87.60
38912;BME280;28444;48.056;14.408;2023-12-22T02:53:35;95844.69;;;3.92;87.05
38912;BME280;28444;48.056;14.408;2023-12-22T02:56:01;95847.78;;;3.88;86.61
38912;BME280;28444;48.056;14.408;2023-12-22T02:58:29;95848.75;;;3.83;87.56
38912;BME280;28444;48.056;14.408;2023-12-22T03:00:55;95834.84;;;3.86;88.05
38912;BME280;28444;48.056;14.408;2023-12-22T03:03:22;95839.31;;;3.74;87.77
38912;BME280;28444;48.056;14.408;2023-12-22T03:05:49;95849.06;;;3.70;89.32
38912;BME280;28444;48.056;14.408;2023-12-22T03:08:15;95837.41;;;3.67;89.21
38912;BME280;28444;48.056;14.408;2023-12-22T03:10:42;95825.44;;;3.70;89.06
38912;BME280;28444;48.056;14.408;2023-12-22T03:13:09;95808.81;;;3.74;88.78
38912;BME280;28444;48.056;14.408;2023-12-22T03:15:35;95817.09;;;3.76;87.47
38912;BME280;28444;48.056;14.408;2023-12-22T03:18:02;95846.69;;;3.74;88.47
38912;BME280;28444;48.056;14.408;2023-12-22T03:20:29;95855.94;;;3.71;88.39
38912;BME280;28444;48.056;14.408;2023-12-22T03:22:55;95875.00;;;3.73;89.84
38912;BME280;28444;48.056;14.408;2023-12-22T03:25:22;95859.41;;;3.64;89.98
38912;BME280;28444;48.056;14.408;2023-12-22T03:27:51;95853.28;;;3.63;89.21
38912;BME280;28444;48.056;14.408;2023-12-22T03:30:18;95885.47;;;3.51;90.44
38912;BME280;28444;48.056;14.408;2023-12-22T03:32:44;95876.78;;;3.35;91.75
38912;BME280;28444;48.056;14.408;2023-12-22T03:35:11;95865.47;;;3.29;93.47
38912;BME280;28444;48.056;14.408;2023-12-22T03:37:38;95878.91;;;3.20;93.24
38912;BME280;28444;48.056;14.408;2023-12-22T03:40:05;95891.66;;;3.19;95.55
38912;BME280;28444;48.056;14.408;2023-12-22T03:42:32;95925.41;;;3.10;95.47
38912;BME280;28444;48.056;14.408;2023-12-22T03:44:58;95910.53;;;3.02;95.40
38912;BME280;28444;48.056;14.408;2023-12-22T03:47:25;95917.66;;;2.82;97.85
38912;BME280;28444;48.056;14.408;2023-12-22T03:49:52;95915.19;;;2.76;98.88
38912;BME280;28444;48.056;14.408;2023-12-22T03:52:18;95926.38;;;2.73;99.08
38912;BME280;28444;48.056;14.408;2023-12-22T03:54:45;95932.47;;;2.73;100.00
38912;BME280;28444;48.056;14.408;2023-12-22T03:57:12;95932.09;;;2.77;100.00
38912;BME280;28444;48.056;14.408;2023-12-22T03:59:38;95937.16;;;2.73;100.00
38912;BME280;28444;48.056;14.408;2023-12-22T04:02:05;95940.78;;;2.68;100.00
38912;BME280;28444;48.056;14.408;2023-12-22T04:04:32;95924.25;;;2.63;100.00
38912;BME280;28444;48.056;14.408;2023-12-22T04:06:59;95921.19;;;2.59;100.00
38912;BME280;28444;48.056;14.408;2023-12-22T04:09:25;95946.38;;;2.62;100.00
38912;BME280;28444;48.056;14.408;2023-12-22T04:11:52;95956.63;;;2.63;100.00
38912;BME280;28444;48.056;14.408;2023-12-22T04:14:18;95938.63;;;2.66;100.00
38912;BME280;28444;48.056;14.408;2023-12-22T04:16:48;95951.22;;;2.63;100.00
38912;BME280;28444;48.056;14.408;2023-12-22T04:19:15;95924.78;;;2.62;100.00
38912;BME280;28444;48.056;14.408;2023-12-22T04:21:42;95922.63;;;2.60;100.00
38912;BME280;28444;48.056;14.408;2023-12-22T04:24:08;95928.28;;;2.47;100.00
38912;BME280;28444;48.056;14.408;2023-12-22T04:26:35;95923.59;;;2.48;100.00
38912;BME280;28444;48.056;14.408;2023-12-22T04:29:02;95930.06;;;2.52;100.00
38912;BME280;28444;48.056;14.408;2023-12-22T04:31:28;95929.16;;;2.50;100.00
38912;BME280;28444;48.056;14.408;2023-12-22T04:34:14;95918.53;;;2.52;100.00
38912;BME280;28444;48.056;14.408;2023-12-22T04:36:42;95923.03;;;2.49;100.00
38912;BME280;28444;48.056;14.408;2023-12-22T04:39:09;95917.81;;;2.51;100.00
38912;BME280;28444;48.056;14.408;2023-12-22T04:41:35;95903.25;;;2.54;100.00
38912;BME280;28444;48.056;14.408;2023-12-22T04:44:02;95896.06;;;2.49;100.00
38912;BME280;28444;48.056;14.408;2023-12-22T04:46:30;95902.00;;;2.48;100.00
38912;BME280;28444;48.056;14.408;2023-12-22T04:48:56;95886.88;;;2.52;100.00
38912;BME280;28444;48.056;14.408;2023-12-22T04:51:23;95887.91;;;2.57;100.00
38912;BME280;28444;48.056;14.408;2023-12-22T04:53:50;95884.72;;;2.51;100.00
38912;BME280;28444;48.056;14.408;2023-12-22T04:56:16;95868.31;;;2.56;100.00
38912;BME280;28444;48.056;14.408;2023-12-22T04:58:43;95875.34;;;2.52;100.00
38912;BME280;28444;48.056;14.408;2023-12-22T05:01:10;95881.84;;;2.49;100.00
38912;BME280;28444;48.056;14.408;2023-12-22T05:03:36;95888.47;;;2.55;100.00
38912;BME280;28444;48.056;14.408;2023-12-22T05:06:03;95882.91;;;2.53;100.00
38912;BME280;28444;48.056;14.408;2023-12-22T05:08:30;95876.97;;;2.55;100.00
38912;BME280;28444;48.056;14.408;2023-12-22T05:10:57;95884.88;;;2.53;100.00
38912;BME280;28444;48.056;14.408;2023-12-22T05:13:24;95885.78;;;2.55;100.00
38912;BME280;28444;48.056;14.408;2023-12-22T05:15:50;95882.91;;;2.53;100.00
38912;BME280;28444;48.056;14.408;2023-12-22T05:18:18;95896.91;;;2.59;100.00
38912;BME280;28444;48.056;14.408;2023-12-22T05:20:45;95902.13;;;2.57;100.00
38912;BME280;28444;48.056;14.408;2023-12-22T05:23:11;95890.09;;;2.58;100.00
38912;BME280;28444;48.056;14.408;2023-12-22T05:25:38;95910.06;;;2.55;100.00
38912;BME280;28444;48.056;14.408;2023-12-22T05:28:05;95907.41;;;2.48;100.00
38912;BME280;28444;48.056;14.408;2023-12-22T05:30:31;95910.63;;;2.46;100.00
38912;BME280;28444;48.056;14.408;2023-12-22T05:32:58;95900.56;;;2.47;100.00
38912;BME280;28444;48.056;14.408;2023-12-22T05:35:25;95919.28;;;2.45;100.00
38912;BME280;28444;48.056;14.408;2023-12-22T05:37:51;95921.06;;;2.50;100.00
38912;BME280;28444;48.056;14.408;2023-12-22T05:40:18;95929.19;;;2.42;100.00
38912;BME280;28444;48.056;14.408;2023-12-22T05:42:45;95923.78;;;2.42;100.00
38912;BME280;28444;48.056;14.408;2023-12-22T05:45:13;95918.56;;;2.44;100.00
38912;BME280;28444;48.056;14.408;2023-12-22T05:47:40;95936.75;;;2.44;100.00
38912;BME280;28444;48.056;14.408;2023-12-22T05:50:07;95925.59;;;2.47;100.00
38912;BME280;28444;48.056;14.408;2023-12-22T05:52:35;95933.31;;;2.51;100.00
38912;BME280;28444;48.056;14.408;2023-12-22T05:55:01;95936.72;;;2.51;100.00
38912;BME280;28444;48.056;14.408;2023-12-22T05:57:28;95936.75;;;2.36;100.00
38912;BME280;28444;48.056;14.408;2023-12-22T05:59:54;95946.69;;;2.33;100.00
38912;BME280;28444;48.056;14.408;2023-12-22T06:02:21;95939.44;;;2.36;100.00
38912;BME280;28444;48.056;14.408;2023-12-22T06:04:48;95954.56;;;2.39;100.00
38912;BME280;28444;48.056;14.408;2023-12-22T06:07:15;95947.16;;;2.47;100.00
38912;BME280;28444;48.056;14.408;2023-12-22T06:09:41;95940.50;;;2.48;100.00
38912;BME280;28444;48.056;14.408;2023-12-22T06:12:08;95952.72;;;2.49;100.00
38912;BME280;28444;48.056;14.408;2023-12-22T06:14:39;95972.91;;;2.40;100.00
38912;BME280;28444;48.056;14.408;2023-12-22T06:17:06;95957.22;;;2.47;100.00
38912;BME280;28444;48.056;14.408;2023-12-22T06:19:32;95971.28;;;2.45;100.00
38912;BME280;28444;48.056;14.408;2023-12-22T06:21:59;95969.13;;;2.44;100.00
38912;BME280;28444;48.056;14.408;2023-12-22T06:24:27;95968.22;;;2.41;100.00
38912;BME280;28444;48.056;14.408;2023-12-22T06:26:53;95973.44;;;2.39;100.00
38912;BME280;28444;48.056;14.408;2023-12-22T06:29:20;95990.16;;;2.45;100.00
38912;BME280;28444;48.056;14.408;2023-12-22T06:31:47;95978.69;;;2.37;100.00
38912;BME280;28444;48.056;14.408;2023-12-22T06:34:17;95979.41;;;2.37;100.00
38912;BME280;28444;48.056;14.408;2023-12-22T06:36:44;95984.94;;;2.47;100.00
38912;BME280;28444;48.056;14.408;2023-12-22T06:39:10;95965.31;;;2.47;100.00
38912;BME280;28444;48.056;14.408;2023-12-22T06:41:37;95976.84;;;2.47;99.31
38912;BME280;28444;48.056;14.408;2023-12-22T06:44:03;95972.66;;;2.54;99.46
38912;BME280;28444;48.056;14.408;2023-12-22T06:46:30;95976.09;;;2.54;100.00
38912;BME280;28444;48.056;14.408;2023-12-22T06:48:58;95975.00;;;2.57;100.00
38912;BME280;28444;48.056;14.408;2023-12-22T06:51:28;95979.00;;;2.49;100.00
38912;BME280;28444;48.056;14.408;2023-12-22T06:53:57;95979.72;;;2.49;100.00
38912;BME280;28444;48.056;14.408;2023-12-22T06:56:26;95980.06;;;2.53;100.00
38912;BME280;28444;48.056;14.408;2023-12-22T06:58:55;95975.75;;;2.50;100.00
38912;BME280;28444;48.056;14.408;2023-12-22T07:01:28;95968.38;;;2.43;100.00
38912;BME280;28444;48.056;14.408;2023-12-22T07:03:55;95952.94;;;2.44;100.00
38912;BME280;28444;48.056;14.408;2023-12-22T07:06:25;95972.34;;;2.42;100.00
38912;BME280;28444;48.056;14.408;2023-12-22T07:11:47;96008.16;;;2.35;100.00
38912;BME280;28444;48.056;14.408;2023-12-22T07:14:14;95999.56;;;2.36;100.00
38912;BME280;28444;48.056;14.408;2023-12-22T07:16:42;96005.47;;;2.35;100.00
38912;BME280;28444;48.056;14.408;2023-12-22T07:19:10;96010.16;;;2.34;100.00
38912;BME280;28444;48.056;14.408;2023-12-22T07:21:40;96022.59;;;2.30;100.00
38912;BME280;28444;48.056;14.408;2023-12-22T07:24:11;96020.22;;;2.34;100.00
38912;BME280;28444;48.056;14.408;2023-12-22T07:26:40;96008.50;;;2.39;100.00
38912;BME280;28444;48.056;14.408;2023-12-22T07:29:06;96026.31;;;2.42;100.00
38912;BME280;28444;48.056;14.408;2023-12-22T07:31:34;96031.38;;;2.38;100.00
38912;BME280;28444;48.056;14.408;2023-12-22T07:34:01;96034.44;;;2.34;100.00
38912;BME280;28444;48.056;14.408;2023-12-22T07:36:27;96038.03;;;2.37;100.00
38912;BME280;28444;48.056;14.408;2023-12-22T07:38:54;96027.44;;;2.31;100.00
38912;BME280;28444;48.056;14.408;2023-12-22T07:41:24;96045.44;;;2.29;100.00
38912;BME280;28444;48.056;14.408;2023-12-22T07:43:50;96047.22;;;2.34;100.00
38912;BME280;28444;48.056;14.408;2023-12-22T07:46:20;96048.84;;;2.37;100.00
38912;BME280;28444;48.056;14.408;2023-12-22T07:48:49;96057.28;;;2.33;100.00
38912;BME280;28444;48.056;14.408;2023-12-22T07:51:18;96048.13;;;2.36;100.00
38912;BME280;28444;48.056;14.408;2023-12-22T07:53:44;96038.41;;;2.33;100.00
38912;BME280;28444;48.056;14.408;2023-12-22T07:56:11;96040.38;;;2.33;100.00
38912;BME280;28444;48.056;14.408;2023-12-22T07:58:38;96019.31;;;2.39;100.00
38912;BME280;28444;48.056;14.408;2023-12-22T08:01:06;96038.19;;;2.47;100.00
38912;BME280;28444;48.056;14.408;2023-12-22T08:03:33;96038.91;;;2.55;100.00
38912;BME280;28444;48.056;14.408;2023-12-22T08:06:00;96033.84;;;2.59;100.00
38912;BME280;28444;48.056;14.408;2023-12-22T08:08:27;96048.78;;;2.60;100.00
38912;BME280;28444;48.056;14.408;2023-12-22T08:10:53;96045.53;;;2.61;100.00
38912;BME280;28444;48.056;14.408;2023-12-22T08:13:20;96038.84;;;2.70;100.00
38912;BME280;28444;48.056;14.408;2023-12-22T08:15:47;96053.06;;;2.71;100.00
38912;BME280;28444;48.056;14.408;2023-12-22T08:18:14;96046.03;;;2.68;100.00
38912;BME280;28444;48.056;14.408;2023-12-22T08:20:40;96039.38;;;2.76;100.00
38912;BME280;28444;48.056;14.408;2023-12-22T08:23:10;96026.41;;;2.75;100.00
38912;BME280;28444;48.056;14.408;2023-12-22T08:25:39;96044.06;;;2.68;100.00
38912;BME280;28444;48.056;14.408;2023-12-22T08:28:10;96055.41;;;2.67;100.00
38912;BME280;28444;48.056;14.408;2023-12-22T08:30:38;96062.59;;;2.72;99.35
38912;BME280;28444;48.056;14.408;2023-12-22T08:33:05;96060.25;;;2.68;100.00
38912;BME280;28444;48.056;14.408;2023-12-22T08:35:32;96073.38;;;2.72;99.59
38912;BME280;28444;48.056;14.408;2023-12-22T08:37:58;96070.31;;;2.75;98.78
38912;BME280;28444;48.056;14.408;2023-12-22T08:40:26;96071.56;;;2.82;98.16
38912;BME280;28444;48.056;14.408;2023-12-22T08:42:54;96071.75;;;2.84;97.78
38912;BME280;28444;48.056;14.408;2023-12-22T08:45:21;96070.84;;;2.81;98.16
38912;BME280;28444;48.056;14.408;2023-12-22T08:47:48;96066.34;;;2.84;97.10
38912;BME280;28444;48.056;14.408;2023-12-22T08:50:15;96077.16;;;2.84;96.01
38912;BME280;28444;48.056;14.408;2023-12-22T08:52:41;96073.00;;;2.91;96.72
38912;BME280;28444;48.056;14.408;2023-12-22T08:55:08;96066.28;;;2.99;95.22
38912;BME280;28444;48.056;14.408;2023-12-22T08:57:35;96069.50;;;2.98;95.62
38912;BME280;28444;48.056;14.408;2023-12-22T09:00:02;96090.59;;;2.99;95.65
38912;BME280;28444;48.056;14.408;2023-12-22T09:02:30;96093.44;;;3.01;95.83
38912;BME280;28444;48.056;14.408;2023-12-22T09:04:56;96107.16;;;3.03;96.33
38912;BME280;28444;48.056;14.408;2023-12-22T09:07:23;96112.72;;;3.05;96.75
38912;BME280;28444;48.056;14.408;2023-12-22T09:09:51;96107.66;;;3.09;97.96
38912;BME280;28444;48.056;14.408;2023-12-22T09:12:18;96119.56;;;3.06;97.04
38912;BME280;28444;48.056;14.408;2023-12-22T09:14:44;96110.53;;;3.11;97.04
38912;BME280;28444;48.056;14.408;2023-12-22T09:17:12;96094.31;;;3.11;95.75
38912;BME280;28444;48.056;14.408;2023-12-22T09:19:39;96109.44;;;3.14;97.05
38912;BME280;28444;48.056;14.408;2023-12-22T09:22:06;96107.25;;;3.21;95.78
38912;BME280;28444;48.056;14.408;2023-12-22T09:24:33;96117.31;;;3.28;96.43
38912;BME280;28444;48.056;14.408;2023-12-22T09:27:00;96151.38;;;3.23;97.55
38912;BME280;28444;48.056;14.408;2023-12-22T09:29:29;96114.44;;;3.26;96.02
38912;BME280;28444;48.056;14.408;2023-12-22T09:31:58;96117.16;;;3.18;94.97
38912;BME280;28444;48.056;14.408;2023-12-22T09:34:28;96134.63;;;3.25;94.26
38912;BME280;28444;48.056;14.408;2023-12-22T09:36:55;96146.16;;;3.25;93.10
38912;BME280;28444;48.056;14.408;2023-12-22T09:39:21;96151.56;;;3.25;93.85
38912;BME280;28444;48.056;14.408;2023-12-22T09:41:49;96163.03;;;3.33;92.64
38912;BME280;28444;48.056;14.408;2023-12-22T09:44:20;96164.47;;;3.42;93.12
38912;BME280;28444;48.056;14.408;2023-12-22T09:46:50;96143.00;;;3.44;93.42
38912;BME280;28444;48.056;14.408;2023-12-22T09:49:19;96136.50;;;3.47;93.13
38912;BME280;28444;48.056;14.408;2023-12-22T09:51:47;96126.38;;;3.55;92.17
38912;BME280;28444;48.056;14.408;2023-12-22T09:54:16;96133.56;;;3.60;92.35
38912;BME280;28444;48.056;14.408;2023-12-22T09:56:44;96116.06;;;3.61;92.02
38912;BME280;28444;48.056;14.408;2023-12-22T09:59:13;96120.59;;;3.59;91.67
38912;BME280;28444;48.056;14.408;2023-12-22T10:01:43;96120.25;;;3.55;93.18
38912;BME280;28444;48.056;14.408;2023-12-22T10:04:15;96125.22;;;3.66;94.16
38912;BME280;28444;48.056;14.408;2023-12-22T10:06:44;96119.97;;;3.76;93.00
38912;BME280;28444;48.056;14.408;2023-12-22T10:09:12;96110.78;;;3.71;94.74
38912;BME280;28444;48.056;14.408;2023-12-22T10:11:43;96127.41;;;3.68;95.63
38912;BME280;28444;48.056;14.408;2023-12-22T10:14:10;96122.31;;;3.72;93.46
38912;BME280;28444;48.056;14.408;2023-12-22T10:16:38;96130.22;;;3.77;92.19
38912;BME280;28444;48.056;14.408;2023-12-22T10:19:05;96115.59;;;3.80;91.54
38912;BME280;28444;48.056;14.408;2023-12-22T10:21:32;96092.16;;;3.83;90.88
38912;BME280;28444;48.056;14.408;2023-12-22T10:24:01;96109.53;;;3.97;90.58
38912;BME280;28444;48.056;14.408;2023-12-22T10:26:28;96097.78;;;4.02;90.44
38912;BME280;28444;48.056;14.408;2023-12-22T10:28:54;96099.75;;;4.02;89.55
38912;BME280;28444;48.056;14.408;2023-12-22T10:31:21;96106.78;;;4.05;89.11
38912;BME280;28444;48.056;14.408;2023-12-22T10:33:48;96105.78;;;4.18;89.04
38912;BME280;28444;48.056;14.408;2023-12-22T10:36:15;96102.31;;;4.25;88.65
38912;BME280;28444;48.056;14.408;2023-12-22T10:38:42;96087.38;;;4.16;87.54
38912;BME280;28444;48.056;14.408;2023-12-22T10:41:09;96097.28;;;4.21;88.31
38912;BME280;28444;48.056;14.408;2023-12-22T10:43:38;96092.66;;;4.14;88.14
38912;BME280;28444;48.056;14.408;2023-12-22T10:46:06;96082.88;;;4.19;87.77
38912;BME280;28444;48.056;14.408;2023-12-22T10:48:39;96082.09;;;4.26;88.63
38912;BME280;28444;48.056;14.408;2023-12-22T10:51:10;96087.50;;;4.26;88.47
38912;BME280;28444;48.056;14.408;2023-12-22T10:53:40;96092.66;;;4.31;88.83
38912;BME280;28444;48.056;14.408;2023-12-22T10:56:08;96086.31;;;4.37;88.10
38912;BME280;28444;48.056;14.408;2023-12-22T10:58:35;96087.09;;;4.29;88.28
38912;BME280;28444;48.056;14.408;2023-12-22T11:01:02;96082.41;;;4.30;88.64
38912;BME280;28444;48.056;14.408;2023-12-22T11:03:32;96082.03;;;4.33;88.63
38912;BME280;28444;48.056;14.408;2023-12-22T11:06:02;96085.13;;;4.30;88.24
38912;BME280;28444;48.056;14.408;2023-12-22T11:08:31;96072.13;;;4.28;89.17
38912;BME280;28444;48.056;14.408;2023-12-22T11:11:04;96090.41;;;4.20;89.03
38912;BME280;28444;48.056;14.408;2023-12-22T11:13:38;96090.81;;;4.17;89.25
38912;BME280;28444;48.056;14.408;2023-12-22T11:16:07;96087.19;;;4.22;89.21
38912;BME280;28444;48.056;14.408;2023-12-22T11:18:35;96105.13;;;4.09;89.18
38912;BME280;28444;48.056;14.408;2023-12-22T11:21:05;96100.31;;;4.00;90.12
38912;BME280;28444;48.056;14.408;2023-12-22T11:23:33;96090.38;;;4.03;90.17
38912;BME280;28444;48.056;14.408;2023-12-22T11:26:02;96088.41;;;4.03;92.05
38912;BME280;28444;48.056;14.408;2023-12-22T11:28:32;96089.13;;;4.04;91.11
38912;BME280;28444;48.056;14.408;2023-12-22T11:31:01;96072.66;;;4.09;90.89
38912;BME280;28444;48.056;14.408;2023-12-22T11:33:28;96063.28;;;4.28;89.77
38912;BME280;28444;48.056;14.408;2023-12-22T11:35:56;96069.19;;;4.34;89.97
38912;BME280;28444;48.056;14.408;2023-12-22T11:38:24;96039.31;;;4.24;90.02
38912;BME280;28444;48.056;14.408;2023-12-22T11:40:52;96035.28;;;4.33;88.89
38912;BME280;28444;48.056;14.408;2023-12-22T11:43:20;96034.00;;;4.34;89.79
38912;BME280;28444;48.056;14.408;2023-12-22T11:45:50;96033.44;;;4.35;89.85
38912;BME280;28444;48.056;14.408;2023-12-22T11:48:17;96052.56;;;4.38;88.81
38912;BME280;28444;48.056;14.408;2023-12-22T11:50:44;96062.19;;;4.31;89.40
38912;BME280;28444;48.056;14.408;2023-12-22T11:53:30;96041.91;;;4.40;90.14
38912;BME280;28444;48.056;14.408;2023-12-22T11:56:04;96045.88;;;4.39;90.15
38912;BME280;28444;48.056;14.408;2023-12-22T11:58:54;96031.94;;;4.42;89.58
38912;BME280;28444;48.056;14.408;2023-12-22T12:01:26;96027.31;;;4.35;91.30
38912;BME280;28444;48.056;14.408;2023-12-22T12:04:02;96030.59;;;4.33;89.81
38912;BME280;28444;48.056;14.408;2023-12-22T12:06:32;96018.50;;;4.34;90.62
38912;BME280;28444;48.056;14.408;2023-12-22T12:09:01;96027.50;;;4.37;89.27
38912;BME280;28444;48.056;14.408;2023-12-22T12:14:22;96008.38;;;4.35;91.60
38912;BME280;28444;48.056;14.408;2023-12-22T12:16:49;96016.66;;;4.37;92.00
38912;BME280;28444;48.056;14.408;2023-12-22T12:19:18;96017.47;;;4.30;92.78
38912;BME280;28444;48.056;14.408;2023-12-22T12:21:45;96029.72;;;4.31;93.30
38912;BME280;28444;48.056;14.408;2023-12-22T12:24:12;96040.59;;;4.23;96.63
38912;BME280;28444;48.056;14.408;2023-12-22T12:26:38;96047.19;;;4.13;98.92
38912;BME280;28444;48.056;14.408;2023-12-22T12:29:05;96051.72;;;4.10;99.72
38912;BME280;28444;48.056;14.408;2023-12-22T12:31:36;96028.56;;;2.76;100.00
38912;BME280;28444;48.056;14.408;2023-12-22T12:34:10;96023.69;;;2.11;100.00
38912;BME280;28444;48.056;14.408;2023-12-22T12:36:38;96011.13;;;1.91;100.00
38912;BME280;28444;48.056;14.408;2023-12-22T12:39:08;96038.44;;;1.64;100.00
38912;BME280;28444;48.056;14.408;2023-12-22T12:41:39;96016.16;;;1.87;100.00
38912;BME280;28444;48.056;14.408;2023-12-22T12:44:06;96026.41;;;1.65;100.00
38912;BME280;28444;48.056;14.408;2023-12-22T12:46:38;96028.00;;;1.53;100.00
38912;BME280;28444;48.056;14.408;2023-12-22T12:49:10;96035.34;;;1.45;100.00
38912;BME280;28444;48.056;14.408;2023-12-22T12:51:43;96030.66;;;1.30;100.00
38912;BME280;28444;48.056;14.408;2023-12-22T12:54:11;96047.16;;;1.19;100.00
38912;BME280;28444;48.056;14.408;2023-12-22T12:56:45;96026.97;;;0.97;100.00
38912;BME280;28444;48.056;14.408;2023-12-22T12:59:14;96023.53;;;0.89;100.00
38912;BME280;28444;48.056;14.408;2023-12-22T13:01:46;96018.47;;;0.70;100.00
38912;BME280;28444;48.056;14.408;2023-12-22T13:04:14;96010.16;;;0.60;100.00
38912;BME280;28444;48.056;14.408;2023-12-22T13:06:50;96018.00;;;0.51;100.00
38912;BME280;28444;48.056;14.408;2023-12-22T13:09:18;96025.22;;;0.56;100.00
38912;BME280;28444;48.056;14.408;2023-12-22T13:11:46;96030.06;;;0.57;100.00
38912;BME280;28444;48.056;14.408;2023-12-22T13:14:24;96013.38;;;0.59;100.00
38912;BME280;28444;48.056;14.408;2023-12-22T13:16:57;96008.56;;;0.65;100.00
38912;BME280;28444;48.056;14.408;2023-12-22T13:19:24;96003.75;;;0.71;100.00